sensor_id;sensor_type;location;lat;lon;timestamp;pressure;altitude;pressure_sealevel;temperature;humidity
50702;BME280;36670;50.094;8.496;2022-09-12T00:01:38;100509.22;;;15.48;73.76
50702;BME280;36670;50.094;8.496;2022-09-12T00:04:03;100509.78;;;15.40;73.97
50702;BME280;36670;50.094;8.496;2022-09-12T00:06:32;100503.09;;;15.35;74.47
50702;BME280;36670;50.094;8.496;2022-09-12T00:09:01;100508.66;;;15.41;74.37
50702;BME280;36670;50.094;8.496;2022-09-12T00:11:27;100508.63;;;15.46;73.91
50702;BME280;36670;50.094;8.496;2022-09-12T00:14:00;100503.09;;;15.41;74.21
50702;BME280;36670;50.094;8.496;2022-09-12T00:16:28;100508.09;;;15.33;74.87
50702;BME280;36670;50.094;8.496;2022-09-12T00:18:53;100500.03;;;15.16;75.61
50702;BME280;36670;50.094;8.496;2022-09-12T00:21:19;100496.72;;;14.99;76.23
50702;BME280;36670;50.094;8.496;2022-09-12T00:23:46;100502.28;;;15.14;74.98
50702;BME280;36670;50.094;8.496;2022-09-12T00:26:12;100497.81;;;15.08;76.22
50702;BME280;36670;50.094;8.496;2022-09-12T00:28:40;100493.94;;;14.99;76.32
50702;BME280;36670;50.094;8.496;2022-09-12T00:31:09;100498.09;;;15.01;76.27
50702;BME280;36670;50.094;8.496;2022-09-12T00:33:35;100492.25;;;15.13;75.35
50702;BME280;36670;50.094;8.496;2022-09-12T00:36:07;100494.47;;;15.11;75.38
50702;BME280;36670;50.094;8.496;2022-09-12T00:38:34;100497.53;;;15.25;75.46
50702;BME280;36670;50.094;8.496;2022-09-12T00:41:03;100490.03;;;15.21;75.98
50702;BME280;36670;50.094;8.496;2022-09-12T00:45:55;100486.13;;;14.96;76.23
50702;BME280;36670;50.094;8.496;2022-09-12T00:48:27;100491.13;;;14.89;76.48
50702;BME280;36670;50.094;8.496;2022-09-12T00:50:56;100484.75;;;14.93;76.14
50702;BME280;36670;50.094;8.496;2022-09-12T00:53:22;100479.47;;;14.87;77.18
50702;BME280;36670;50.094;8.496;2022-09-12T00:55:49;100480.28;;;14.82;76.87
50702;BME280;36670;50.094;8.496;2022-09-12T00:58:29;100471.97;;;14.77;77.14
50702;BME280;36670;50.094;8.496;2022-09-12T01:00:56;100471.94;;;14.82;76.81
50702;BME280;36670;50.094;8.496;2022-09-12T01:03:23;100465.03;;;14.95;75.95
50702;BME280;36670;50.094;8.496;2022-09-12T01:06:04;100474.72;;;14.97;75.83
50702;BME280;36670;50.094;8.496;2022-09-12T01:08:33;100478.38;;;14.98;75.89
50702;BME280;36670;50.094;8.496;2022-09-12T01:11:01;100475.56;;;15.08;75.74
50702;BME280;36670;50.094;8.496;2022-09-12T01:13:27;100473.09;;;15.12;75.87
50702;BME280;36670;50.094;8.496;2022-09-12T01:15:53;100474.75;;;15.13;75.75
50702;BME280;36670;50.094;8.496;2022-09-12T01:18:34;100478.34;;;15.08;75.41
50702;BME280;36670;50.094;8.496;2022-09-12T01:21:08;100473.63;;;15.04;75.63
50702;BME280;36670;50.094;8.496;2022-09-12T01:29:40;100474.19;;;15.06;74.90
50702;BME280;36670;50.094;8.496;2022-09-12T01:32:21;100464.47;;;15.03;75.81
50702;BME280;36670;50.094;8.496;2022-09-12T01:35:00;100459.47;;;14.90;76.43
50702;BME280;36670;50.094;8.496;2022-09-12T01:37:31;100454.16;;;14.78;76.81
50702;BME280;36670;50.094;8.496;2022-09-12T01:43:01;100468.28;;;14.61;78.06
50702;BME280;36670;50.094;8.496;2022-09-12T01:45:42;100456.34;;;14.60;77.83
50702;BME280;36670;50.094;8.496;2022-09-12T01:48:18;100460.22;;;14.59;77.39
50702;BME280;36670;50.094;8.496;2022-09-12T01:51:00;100458.03;;;14.61;77.80
50702;BME280;36670;50.094;8.496;2022-09-12T01:53:33;100452.50;;;14.72;77.58
50702;BME280;36670;50.094;8.496;2022-09-12T01:56:14;100447.50;;;14.68;77.44
50702;BME280;36670;50.094;8.496;2022-09-12T01:59:13;100441.94;;;14.68;76.91
50702;BME280;36670;50.094;8.496;2022-09-12T02:01:49;100445.00;;;14.82;77.07
50702;BME280;36670;50.094;8.496;2022-09-12T02:04:22;100445.00;;;14.82;76.35
50702;BME280;36670;50.094;8.496;2022-09-12T02:06:57;100445.00;;;14.82;77.05
50702;BME280;36670;50.094;8.496;2022-09-12T02:09:28;100442.22;;;14.77;77.07
50702;BME280;36670;50.094;8.496;2022-09-12T02:11:58;100443.88;;;14.83;76.96
50702;BME280;36670;50.094;8.496;2022-09-12T02:14:36;100444.72;;;14.84;76.09
50702;BME280;36670;50.094;8.496;2022-09-12T02:17:10;100449.75;;;14.77;77.19
50702;BME280;36670;50.094;8.496;2022-09-12T02:19:40;100442.78;;;14.69;76.97
50702;BME280;36670;50.094;8.496;2022-09-12T02:22:09;100440.81;;;14.70;76.98
50702;BME280;36670;50.094;8.496;2022-09-12T02:24:39;100441.94;;;14.68;77.05
50702;BME280;36670;50.094;8.496;2022-09-12T02:27:27;100442.75;;;14.64;76.91
50702;BME280;36670;50.094;8.496;2022-09-12T02:29:53;100440.81;;;14.70;77.15
50702;BME280;36670;50.094;8.496;2022-09-12T02:32:59;100438.59;;;14.72;76.88
50702;BME280;36670;50.094;8.496;2022-09-12T02:35:38;100441.38;;;14.72;76.83
50702;BME280;36670;50.094;8.496;2022-09-12T02:38:27;100440.25;;;14.78;76.50
50702;BME280;36670;50.094;8.496;2022-09-12T02:40:56;100442.50;;;14.71;76.69
50702;BME280;36670;50.094;8.496;2022-09-12T02:43:21;100445.00;;;14.67;76.22
50702;BME280;36670;50.094;8.496;2022-09-12T02:45:47;100440.50;;;14.61;76.51
50702;BME280;36670;50.094;8.496;2022-09-12T02:48:19;100439.09;;;14.48;76.52
50702;BME280;36670;50.094;8.496;2022-09-12T02:50:46;100445.50;;;14.43;76.71
50702;BME280;36670;50.094;8.496;2022-09-12T02:53:12;100440.19;;;14.31;77.40
50702;BME280;36670;50.094;8.496;2022-09-12T02:55:39;100444.34;;;14.24;77.50
50702;BME280;36670;50.094;8.496;2022-09-12T02:58:08;100448.75;;;14.14;77.37
50702;BME280;36670;50.094;8.496;2022-09-12T03:03:48;100442.13;;;14.31;77.36
50702;BME280;36670;50.094;8.496;2022-09-12T03:11:48;100446.81;;;14.20;77.71
50702;BME280;36670;50.094;8.496;2022-09-12T03:14:31;100458.78;;;14.26;76.81
50702;BME280;36670;50.094;8.496;2022-09-12T03:17:13;100448.75;;;14.14;77.71
50702;BME280;36670;50.094;8.496;2022-09-12T03:19:51;100448.72;;;13.99;78.42
50702;BME280;36670;50.094;8.496;2022-09-12T03:22:21;100453.94;;;13.95;78.19
50702;BME280;36670;50.094;8.496;2022-09-12T03:25:17;100460.59;;;13.94;78.68
50702;BME280;36670;50.094;8.496;2022-09-12T03:28:00;100451.44;;;13.94;78.68
50702;BME280;36670;50.094;8.496;2022-09-12T03:30:39;100436.16;;;13.91;78.01
50702;BME280;36670;50.094;8.496;2022-09-12T03:33:05;100440.31;;;13.89;78.35
50702;BME280;36670;50.094;8.496;2022-09-12T03:35:30;100448.91;;;13.82;78.56
50702;BME280;36670;50.094;8.496;2022-09-12T03:37:56;100439.81;;;13.92;78.07
50702;BME280;36670;50.094;8.496;2022-09-12T03:40:21;100443.41;;;13.92;78.28
50702;BME280;36670;50.094;8.496;2022-09-12T03:42:47;100445.06;;;13.88;78.17
50702;BME280;36670;50.094;8.496;2022-09-12T03:45:12;100438.69;;;13.88;78.68
50702;BME280;36670;50.094;8.496;2022-09-12T03:47:38;100451.19;;;13.95;77.97
50702;BME280;36670;50.094;8.496;2022-09-12T03:50:04;100449.78;;;13.93;78.57
50702;BME280;36670;50.094;8.496;2022-09-12T03:52:30;100447.50;;;13.85;79.37
50702;BME280;36670;50.094;8.496;2022-09-12T03:54:55;100443.09;;;13.83;78.72
50702;BME280;36670;50.094;8.496;2022-09-12T03:57:21;100445.59;;;13.90;78.80
50702;BME280;36670;50.094;8.496;2022-09-12T03:59:47;100442.31;;;13.98;78.34
50702;BME280;36670;50.094;8.496;2022-09-12T04:02:13;100443.63;;;13.80;79.11
50702;BME280;36670;50.094;8.496;2022-09-12T04:04:42;100435.31;;;13.86;78.99
50702;BME280;36670;50.094;8.496;2022-09-12T04:07:08;100442.25;;;13.78;78.90
50702;BME280;36670;50.094;8.496;2022-09-12T04:09:34;100440.84;;;13.80;78.77
50702;BME280;36670;50.094;8.496;2022-09-12T04:11:59;100446.66;;;13.79;79.03
50702;BME280;36670;50.094;8.496;2022-09-12T04:14:25;100441.06;;;13.69;79.18
50702;BME280;36670;50.094;8.496;2022-09-12T04:16:50;100448.81;;;13.66;78.62
50702;BME280;36670;50.094;8.496;2022-09-12T04:19:15;100441.34;;;13.67;79.05
50702;BME280;36670;50.094;8.496;2022-09-12T04:21:40;100446.31;;;13.65;79.47
50702;BME280;36670;50.094;8.496;2022-09-12T04:24:06;100446.09;;;13.72;78.45
50702;BME280;36670;50.094;8.496;2022-09-12T04:26:31;100447.34;;;13.48;79.33
50702;BME280;36670;50.094;8.496;2022-09-12T04:28:57;100440.69;;;13.49;79.54
50702;BME280;36670;50.094;8.496;2022-09-12T04:31:23;100446.03;;;13.66;78.85
50702;BME280;36670;50.094;8.496;2022-09-12T04:33:53;100439.91;;;13.59;78.82
50702;BME280;36670;50.094;8.496;2022-09-12T04:36:19;100444.69;;;13.64;78.79
50702;BME280;36670;50.094;8.496;2022-09-12T04:38:46;100452.41;;;13.62;79.32
50702;BME280;36670;50.094;8.496;2022-09-12T04:41:17;100444.56;;;13.48;79.52
50702;BME280;36670;50.094;8.496;2022-09-12T04:43:43;100438.22;;;13.53;78.94
50702;BME280;36670;50.094;8.496;2022-09-12T04:46:14;100439.91;;;13.54;79.21
50702;BME280;36670;50.094;8.496;2022-09-12T04:48:40;100441.25;;;13.46;80.22
50702;BME280;36670;50.094;8.496;2022-09-12T04:51:11;100435.38;;;13.43;79.88
50702;BME280;36670;50.094;8.496;2022-09-12T04:53:38;100446.75;;;13.41;80.17
50702;BME280;36670;50.094;8.496;2022-09-12T04:56:04;100445.66;;;13.42;80.19
50702;BME280;36670;50.094;8.496;2022-09-12T04:58:31;100436.25;;;13.43;80.42
50702;BME280;36670;50.094;8.496;2022-09-12T05:01:11;100437.91;;;13.49;80.69
50702;BME280;36670;50.094;8.496;2022-09-12T05:03:38;100437.38;;;13.47;80.06
50702;BME280;36670;50.094;8.496;2022-09-12T05:06:06;100440.09;;;13.42;80.17
50702;BME280;36670;50.094;8.496;2022-09-12T05:08:32;100444.00;;;13.46;80.13
50702;BME280;36670;50.094;8.496;2022-09-12T05:11:05;100439.59;;;13.51;80.02
50702;BME280;36670;50.094;8.496;2022-09-12T05:13:31;100434.59;;;13.53;79.96
50702;BME280;36670;50.094;8.496;2022-09-12T05:15:58;100438.28;;;13.63;79.85
50702;BME280;36670;50.094;8.496;2022-09-12T05:18:24;100434.94;;;13.66;79.48
50702;BME280;36670;50.094;8.496;2022-09-12T05:20:51;100447.72;;;13.68;79.75
50702;BME280;36670;50.094;8.496;2022-09-12T05:23:17;100451.38;;;13.78;79.74
50702;BME280;36670;50.094;8.496;2022-09-12T05:25:52;100443.13;;;13.94;79.13
50702;BME280;36670;50.094;8.496;2022-09-12T05:28:19;100439.56;;;14.09;78.63
50702;BME280;36670;50.094;8.496;2022-09-12T05:30:45;100449.31;;;14.22;78.20
50702;BME280;36670;50.094;8.496;2022-09-12T05:33:10;100449.03;;;14.18;78.25
50702;BME280;36670;50.094;8.496;2022-09-12T05:35:36;100453.78;;;14.23;78.29
50702;BME280;36670;50.094;8.496;2022-09-12T05:38:05;100452.69;;;14.24;77.93
50702;BME280;36670;50.094;8.496;2022-09-12T05:40:31;100450.69;;;14.14;78.60
50702;BME280;36670;50.094;8.496;2022-09-12T05:42:56;100449.88;;;14.19;78.90
50702;BME280;36670;50.094;8.496;2022-09-12T05:45:21;100452.69;;;14.24;78.56
50702;BME280;36670;50.094;8.496;2022-09-12T05:47:47;100456.53;;;14.28;78.94
50702;BME280;36670;50.094;8.496;2022-09-12T05:50:13;100445.19;;;14.40;78.22
50702;BME280;36670;50.094;8.496;2022-09-12T05:52:38;100445.19;;;14.34;78.03
50702;BME280;36670;50.094;8.496;2022-09-12T05:55:04;100456.28;;;14.24;79.04
50702;BME280;36670;50.094;8.496;2022-09-12T05:57:29;100456.56;;;14.33;78.12
50702;BME280;36670;50.094;8.496;2022-09-12T05:59:55;100456.88;;;14.37;78.21
50702;BME280;36670;50.094;8.496;2022-09-12T06:02:20;100455.50;;;14.39;78.27
50702;BME280;36670;50.094;8.496;2022-09-12T06:04:45;100453.28;;;14.62;78.56
50702;BME280;36670;50.094;8.496;2022-09-12T06:07:11;100447.72;;;15.49;76.01
50702;BME280;36670;50.094;8.496;2022-09-12T06:09:36;100450.59;;;16.54;73.88
50702;BME280;36670;50.094;8.496;2022-09-12T06:12:02;100448.44;;;17.20;70.10
50702;BME280;36670;50.094;8.496;2022-09-12T06:14:27;100451.59;;;17.09;70.83
50702;BME280;36670;50.094;8.496;2022-09-12T06:16:52;100454.41;;;17.03;68.85
50702;BME280;36670;50.094;8.496;2022-09-12T06:19:19;100460.41;;;17.21;70.02
50702;BME280;36670;50.094;8.496;2022-09-12T06:21:46;100453.59;;;17.86;67.82
50702;BME280;36670;50.094;8.496;2022-09-12T06:24:14;100440.22;;;18.45;64.82
50702;BME280;36670;50.094;8.496;2022-09-12T06:26:39;100449.06;;;18.52;65.93
50702;BME280;36670;50.094;8.496;2022-09-12T06:29:05;100450.34;;;18.60;64.19
50702;BME280;36670;50.094;8.496;2022-09-12T06:31:33;100435.88;;;19.10;63.44
50702;BME280;36670;50.094;8.496;2022-09-12T06:34:04;100436.69;;;18.58;63.69
50702;BME280;36670;50.094;8.496;2022-09-12T06:36:32;100438.72;;;18.53;64.74
50702;BME280;36670;50.094;8.496;2022-09-12T06:39:02;100434.16;;;18.95;63.86
50702;BME280;36670;50.094;8.496;2022-09-12T06:41:28;100434.84;;;19.20;62.58
50702;BME280;36670;50.094;8.496;2022-09-12T06:43:55;100433.41;;;19.22;62.98
50702;BME280;36670;50.094;8.496;2022-09-12T06:46:20;100433.72;;;18.88;63.82
50702;BME280;36670;50.094;8.496;2022-09-12T06:48:46;100438.25;;;18.65;63.74
50702;BME280;36670;50.094;8.496;2022-09-12T06:51:14;100438.47;;;17.87;66.06
50702;BME280;36670;50.094;8.496;2022-09-12T06:53:40;100437.13;;;17.60;67.68
50702;BME280;36670;50.094;8.496;2022-09-12T06:56:15;100436.50;;;17.39;68.25
50702;BME280;36670;50.094;8.496;2022-09-12T06:58:42;100438.38;;;17.19;68.88
50702;BME280;36670;50.094;8.496;2022-09-12T07:01:13;100432.50;;;17.21;69.08
50702;BME280;36670;50.094;8.496;2022-09-12T07:03:40;100428.16;;;17.10;69.18
50702;BME280;36670;50.094;8.496;2022-09-12T07:06:12;100436.03;;;17.02;69.97
50702;BME280;36670;50.094;8.496;2022-09-12T07:08:38;100433.84;;;16.99;70.03
50702;BME280;36670;50.094;8.496;2022-09-12T07:11:13;100441.66;;;17.27;69.98
50702;BME280;36670;50.094;8.496;2022-09-12T07:13:39;100443.34;;;17.52;69.15
50702;BME280;36670;50.094;8.496;2022-09-12T07:16:06;100442.88;;;17.45;68.91
50702;BME280;36670;50.094;8.496;2022-09-12T07:18:32;100443.78;;;17.40;68.87
50702;BME280;36670;50.094;8.496;2022-09-12T07:21:01;100444.44;;;17.27;69.39
50702;BME280;36670;50.094;8.496;2022-09-12T07:23:27;100437.88;;;17.42;69.20
50702;BME280;36670;50.094;8.496;2022-09-12T07:25:53;100433.38;;;17.46;69.93
50702;BME280;36670;50.094;8.496;2022-09-12T07:28:19;100434.88;;;17.62;69.89
50702;BME280;36670;50.094;8.496;2022-09-12T07:30:45;100437.66;;;17.86;69.49
50702;BME280;36670;50.094;8.496;2022-09-12T07:33:10;100434.03;;;17.86;67.89
50702;BME280;36670;50.094;8.496;2022-09-12T07:35:36;100433.41;;;17.94;68.72
50702;BME280;36670;50.094;8.496;2022-09-12T07:38:01;100432.13;;;18.05;67.01
50702;BME280;36670;50.094;8.496;2022-09-12T07:40:27;100438.44;;;17.92;67.53
50702;BME280;36670;50.094;8.496;2022-09-12T07:42:52;100433.91;;;17.96;67.28
50702;BME280;36670;50.094;8.496;2022-09-12T07:45:17;100429.78;;;18.13;67.00
50702;BME280;36670;50.094;8.496;2022-09-12T07:47:42;100418.31;;;18.14;67.47
50702;BME280;36670;50.094;8.496;2022-09-12T07:50:08;100425.47;;;18.20;67.00
50702;BME280;36670;50.094;8.496;2022-09-12T07:52:33;100414.25;;;18.25;66.26
50702;BME280;36670;50.094;8.496;2022-09-12T07:54:59;100413.94;;;18.27;67.22
50702;BME280;36670;50.094;8.496;2022-09-12T07:57:24;100422.41;;;18.22;67.07
50702;BME280;36670;50.094;8.496;2022-09-12T07:59:49;100420.59;;;18.31;67.08
50702;BME280;36670;50.094;8.496;2022-09-12T08:02:15;100423.25;;;18.41;66.61
50702;BME280;36670;50.094;8.496;2022-09-12T08:04:43;100414.69;;;18.52;66.17
50702;BME280;36670;50.094;8.496;2022-09-12T08:07:08;100426.13;;;18.55;66.67
50702;BME280;36670;50.094;8.496;2022-09-12T08:09:34;100424.72;;;18.91;66.12
50702;BME280;36670;50.094;8.496;2022-09-12T08:12:00;100422.94;;;19.28;66.07
50702;BME280;36670;50.094;8.496;2022-09-12T08:14:25;100435.38;;;19.36;64.25
50702;BME280;36670;50.094;8.496;2022-09-12T08:16:51;100423.94;;;19.51;65.16
50702;BME280;36670;50.094;8.496;2022-09-12T08:19:16;100431.47;;;19.65;64.50
50702;BME280;36670;50.094;8.496;2022-09-12T08:21:42;100423.63;;;19.67;64.12
50702;BME280;36670;50.094;8.496;2022-09-12T08:24:10;100413.53;;;19.66;63.24
50702;BME280;36670;50.094;8.496;2022-09-12T08:26:36;100426.19;;;19.49;63.57
50702;BME280;36670;50.094;8.496;2022-09-12T08:29:01;100423.06;;;19.51;63.90
50702;BME280;36670;50.094;8.496;2022-09-12T08:31:28;100429.94;;;19.44;63.97
50702;BME280;36670;50.094;8.496;2022-09-12T08:33:57;100426.81;;;19.46;63.80
50702;BME280;36670;50.094;8.496;2022-09-12T08:36:25;100440.09;;;19.40;63.09
50702;BME280;36670;50.094;8.496;2022-09-12T08:38:54;100430.75;;;19.45;63.41
50702;BME280;36670;50.094;8.496;2022-09-12T08:41:30;100423.00;;;19.84;63.18
50702;BME280;36670;50.094;8.496;2022-09-12T08:52:18;100422.13;;;20.11;61.28
50702;BME280;36670;50.094;8.496;2022-09-12T08:54:46;100421.59;;;20.23;63.25
50702;BME280;36670;50.094;8.496;2022-09-12T08:57:13;100433.25;;;20.53;60.52
50702;BME280;36670;50.094;8.496;2022-09-12T08:59:44;100417.31;;;20.62;61.28
50702;BME280;36670;50.094;8.496;2022-09-12T09:05:51;100410.63;;;21.17;60.90
50702;BME280;36670;50.094;8.496;2022-09-12T09:17:19;100424.63;;;21.71;59.30
50702;BME280;36670;50.094;8.496;2022-09-12T09:19:51;100421.25;;;22.09;58.46
50702;BME280;36670;50.094;8.496;2022-09-12T09:22:30;100422.88;;;21.53;57.35
50702;BME280;36670;50.094;8.496;2022-09-12T09:25:03;100416.13;;;21.54;58.12
50702;BME280;36670;50.094;8.496;2022-09-12T09:27:34;100410.28;;;21.50;57.48
50702;BME280;36670;50.094;8.496;2022-09-12T09:30:03;100408.19;;;21.56;57.67
50702;BME280;36670;50.094;8.496;2022-09-12T09:32:33;100401.94;;;21.59;58.38
50702;BME280;36670;50.094;8.496;2022-09-12T09:37:42;100409.09;;;21.74;56.09
50702;BME280;36670;50.094;8.496;2022-09-12T09:42:54;100403.78;;;21.72;56.54
50702;BME280;36670;50.094;8.496;2022-09-12T09:45:23;100395.78;;;22.06;55.92
50702;BME280;36670;50.094;8.496;2022-09-12T09:48:15;100390.19;;;22.14;56.23
50702;BME280;36670;50.094;8.496;2022-09-12T09:50:41;100402.06;;;22.11;55.42
50702;BME280;36670;50.094;8.496;2022-09-12T09:53:11;100385.59;;;22.54;55.74
50702;BME280;36670;50.094;8.496;2022-09-12T09:55:44;100385.41;;;22.50;54.56
50702;BME280;36670;50.094;8.496;2022-09-12T09:58:10;100384.25;;;22.51;54.67
50702;BME280;36670;50.094;8.496;2022-09-12T10:00:36;100389.41;;;22.58;54.95
50702;BME280;36670;50.094;8.496;2022-09-12T10:03:05;100385.09;;;22.69;53.22
50702;BME280;36670;50.094;8.496;2022-09-12T10:08:30;100392.03;;;22.63;54.52
50702;BME280;36670;50.094;8.496;2022-09-12T10:13:56;100381.13;;;22.70;52.79
50702;BME280;36670;50.094;8.496;2022-09-12T10:16:46;100377.97;;;22.72;53.12
50702;BME280;36670;50.094;8.496;2022-09-12T10:19:24;100366.63;;;23.15;53.18
50702;BME280;36670;50.094;8.496;2022-09-12T10:21:57;100364.84;;;23.49;53.40
50702;BME280;36670;50.094;8.496;2022-09-12T10:24:26;100361.16;;;23.58;52.43
50702;BME280;36670;50.094;8.496;2022-09-12T10:29:44;100352.38;;;24.10;51.45
50702;BME280;36670;50.094;8.496;2022-09-12T10:32:28;100350.50;;;24.35;51.81
50702;BME280;36670;50.094;8.496;2022-09-12T10:35:04;100349.50;;;24.40;50.46
50702;BME280;36670;50.094;8.496;2022-09-12T10:37:37;100345.84;;;24.61;49.66
50702;BME280;36670;50.094;8.496;2022-09-12T10:40:20;100338.94;;;24.49;50.43
50702;BME280;36670;50.094;8.496;2022-09-12T10:47:55;100332.72;;;24.23;47.60
50702;BME280;36670;50.094;8.496;2022-09-12T10:50:30;100336.56;;;23.97;49.86
50702;BME280;36670;50.094;8.496;2022-09-12T10:53:22;100332.25;;;24.20;49.25
50702;BME280;36670;50.094;8.496;2022-09-12T10:56:00;100333.03;;;24.42;48.80
50702;BME280;36670;50.094;8.496;2022-09-12T11:01:05;100320.41;;;24.82;48.81
50702;BME280;36670;50.094;8.496;2022-09-12T11:04:15;100326.69;;;25.12;49.01
50702;BME280;36670;50.094;8.496;2022-09-12T11:12:57;100332.59;;;25.19;47.74
50702;BME280;36670;50.094;8.496;2022-09-12T11:17:58;100317.13;;;25.04;45.74
50702;BME280;36670;50.094;8.496;2022-09-12T11:20:37;100324.63;;;24.54;46.43
50702;BME280;36670;50.094;8.496;2022-09-12T11:26:02;100316.09;;;25.21;46.93
50702;BME280;36670;50.094;8.496;2022-09-12T11:28:54;100313.44;;;24.79;45.07
50702;BME280;36670;50.094;8.496;2022-09-12T11:31:45;100310.59;;;24.67;47.51
50702;BME280;36670;50.094;8.496;2022-09-12T11:34:28;100299.72;;;25.27;48.35
50702;BME280;36670;50.094;8.496;2022-09-12T11:39:42;100300.78;;;25.10;46.22
50702;BME280;36670;50.094;8.496;2022-09-12T11:42:16;100300.06;;;25.13;45.57
50702;BME280;36670;50.094;8.496;2022-09-12T11:44:45;100288.47;;;25.39;45.19
50702;BME280;36670;50.094;8.496;2022-09-12T11:47:13;100286.44;;;25.52;45.15
50702;BME280;36670;50.094;8.496;2022-09-12T11:49:45;100283.59;;;25.65;43.46
50702;BME280;36670;50.094;8.496;2022-09-12T11:52:19;100277.97;;;25.52;42.06
50702;BME280;36670;50.094;8.496;2022-09-12T11:54:49;100286.13;;;25.54;42.77
50702;BME280;36670;50.094;8.496;2022-09-12T11:59:55;100276.53;;;25.83;42.13
50702;BME280;36670;50.094;8.496;2022-09-12T12:07:30;100273.56;;;25.80;42.38
50702;BME280;36670;50.094;8.496;2022-09-12T12:09:59;100265.63;;;25.98;40.80
50702;BME280;36670;50.094;8.496;2022-09-12T12:12:26;100260.78;;;26.11;40.77
50702;BME280;36670;50.094;8.496;2022-09-12T12:14:54;100254.25;;;26.22;39.93
50702;BME280;36670;50.094;8.496;2022-09-12T12:17:24;100259.25;;;26.01;39.96
50702;BME280;36670;50.094;8.496;2022-09-12T12:20:00;100264.09;;;26.00;40.55
50702;BME280;36670;50.094;8.496;2022-09-12T12:22:27;100258.31;;;26.09;41.56
50702;BME280;36670;50.094;8.496;2022-09-12T12:25:01;100253.88;;;26.24;41.84
50702;BME280;36670;50.094;8.496;2022-09-12T12:36:04;100244.06;;;26.50;40.72
50702;BME280;36670;50.094;8.496;2022-09-12T12:38:33;100235.44;;;26.58;41.03
50702;BME280;36670;50.094;8.496;2022-09-12T12:43:44;100231.75;;;26.14;41.22
50702;BME280;36670;50.094;8.496;2022-09-12T12:46:14;100226.28;;;25.93;40.84
50702;BME280;36670;50.094;8.496;2022-09-12T12:51:41;100227.13;;;25.93;41.43
50702;BME280;36670;50.094;8.496;2022-09-12T13:00:25;100205.59;;;26.33;40.21
50702;BME280;36670;50.094;8.496;2022-09-12T13:02:59;100187.44;;;26.50;40.18
50702;BME280;36670;50.094;8.496;2022-09-12T13:05:28;100192.66;;;26.64;40.52
50702;BME280;36670;50.094;8.496;2022-09-12T13:08:02;100191.84;;;26.63;39.72
50702;BME280;36670;50.094;8.496;2022-09-12T13:10:30;100180.16;;;26.49;38.73
50702;BME280;36670;50.094;8.496;2022-09-12T13:12:58;100181.53;;;26.39;39.50
50702;BME280;36670;50.094;8.496;2022-09-12T13:15:47;100182.91;;;26.61;39.86
50702;BME280;36670;50.094;8.496;2022-09-12T13:18:17;100182.00;;;26.57;38.68
50702;BME280;36670;50.094;8.496;2022-09-12T13:20:48;100181.97;;;26.41;39.08
50702;BME280;36670;50.094;8.496;2022-09-12T13:23:34;100178.84;;;26.30;38.92
50702;BME280;36670;50.094;8.496;2022-09-12T13:26:00;100172.00;;;26.31;39.16
50702;BME280;36670;50.094;8.496;2022-09-12T13:28:28;100174.25;;;26.70;39.46
50702;BME280;36670;50.094;8.496;2022-09-12T13:30:55;100167.97;;;26.77;39.62
50702;BME280;36670;50.094;8.496;2022-09-12T13:33:41;100164.19;;;26.88;38.91
50702;BME280;36670;50.094;8.496;2022-09-12T13:36:22;100159.28;;;27.21;39.77
50702;BME280;36670;50.094;8.496;2022-09-12T13:41:47;100160.50;;;27.55;39.03
50702;BME280;36670;50.094;8.496;2022-09-12T13:44:19;100162.00;;;27.49;37.68
50702;BME280;36670;50.094;8.496;2022-09-12T13:46:46;100156.16;;;27.26;38.43
50702;BME280;36670;50.094;8.496;2022-09-12T13:49:36;100154.88;;;27.23;38.33
50702;BME280;36670;50.094;8.496;2022-09-12T13:52:05;100142.47;;;27.28;36.76
50702;BME280;36670;50.094;8.496;2022-09-12T13:54:33;100150.59;;;26.78;38.55
50702;BME280;36670;50.094;8.496;2022-09-12T13:57:02;100150.44;;;26.71;37.78
50702;BME280;36670;50.094;8.496;2022-09-12T13:59:37;100145.44;;;26.36;37.77
50702;BME280;36670;50.094;8.496;2022-09-12T14:02:17;100142.63;;;26.36;38.59
50702;BME280;36670;50.094;8.496;2022-09-12T14:04:46;100141.25;;;26.62;39.13
50702;BME280;36670;50.094;8.496;2022-09-12T14:07:30;100134.41;;;26.79;38.54
50702;BME280;36670;50.094;8.496;2022-09-12T14:09:58;100133.25;;;26.80;37.30
50702;BME280;36670;50.094;8.496;2022-09-12T14:12:29;100131.69;;;26.82;38.52
50702;BME280;36670;50.094;8.496;2022-09-12T14:14:56;100128.00;;;26.82;37.88
50702;BME280;36670;50.094;8.496;2022-09-12T14:17:25;100124.47;;;26.85;37.94
50702;BME280;36670;50.094;8.496;2022-09-12T14:19:54;100119.88;;;26.80;37.94
50702;BME280;36670;50.094;8.496;2022-09-12T14:22:23;100118.25;;;26.79;38.86
50702;BME280;36670;50.094;8.496;2022-09-12T14:24:51;100115.88;;;26.81;38.18
50702;BME280;36670;50.094;8.496;2022-09-12T14:27:22;100120.44;;;26.38;38.35
50702;BME280;36670;50.094;8.496;2022-09-12T14:29:59;100113.16;;;26.53;37.58
50702;BME280;36670;50.094;8.496;2022-09-12T14:32:25;100118.63;;;26.30;37.75
50702;BME280;36670;50.094;8.496;2022-09-12T14:35:04;100112.13;;;26.61;37.50
50702;BME280;36670;50.094;8.496;2022-09-12T14:37:29;100105.56;;;26.57;37.78
50702;BME280;36670;50.094;8.496;2022-09-12T14:39:55;100099.81;;;26.53;37.76
50702;BME280;36670;50.094;8.496;2022-09-12T14:42:24;100100.88;;;26.65;38.46
50702;BME280;36670;50.094;8.496;2022-09-12T14:44:57;100097.31;;;26.68;38.35
50702;BME280;36670;50.094;8.496;2022-09-12T14:47:25;100102.81;;;26.45;36.98
50702;BME280;36670;50.094;8.496;2022-09-12T14:49:51;100100.06;;;26.16;35.76
50702;BME280;36670;50.094;8.496;2022-09-12T14:52:24;100099.19;;;26.00;36.86
50702;BME280;36670;50.094;8.496;2022-09-12T14:55:22;100094.03;;;26.02;36.61